createdAt,value
2018-01-31T01:52:20.658Z,98428.04
2018-01-31T01:52:23.070Z,98225.45
2018-01-31T01:52:27.661Z,98226.25
2018-01-31T01:52:59.290Z,98218.59
2018-01-31T01:53:30.960Z,98226.23
2018-01-31T01:54:02.586Z,98219.00
2018-01-31T01:54:34.218Z,98216.45
2018-01-31T01:55:05.846Z,98230.88
2018-01-31T01:55:37.474Z,98220.70
2018-01-31T01:56:09.109Z,98219.01
2018-01-31T01:56:40.733Z,98219.05
2018-01-31T01:57:12.353Z,98218.58
2018-01-31T01:57:43.977Z,98219.01
2018-01-31T01:58:15.605Z,98213.90
2018-01-31T01:58:47.278Z,98208.41
2018-01-31T01:59:18.906Z,98215.13
2018-01-31T01:59:50.538Z,98208.31
2018-01-31T02:00:22.161Z,98204.05
2018-01-31T02:00:53.790Z,98206.60
2018-01-31T02:01:25.422Z,98207.45
2018-01-31T02:01:57.069Z,98206.14
2018-01-31T02:02:28.690Z,98203.61
2018-01-31T02:03:00.314Z,98196.77
2018-01-31T02:03:31.945Z,98200.64
2018-01-31T02:04:03.614Z,98196.81
2018-01-31T02:04:35.246Z,98195.11
2018-01-31T02:05:06.865Z,98194.69
2018-01-31T02:05:38.485Z,98190.44
2018-01-31T02:06:10.105Z,98187.94
2018-01-31T02:06:41.729Z,98185.33
2018-01-31T02:07:13.358Z,98184.94
2018-01-31T02:07:44.982Z,98186.17
2018-01-31T02:08:16.653Z,98191.29
2018-01-31T02:08:48.282Z,98188.31
2018-01-31T02:09:19.910Z,98190.44
2018-01-31T02:09:51.532Z,98186.59
2018-01-31T02:10:23.154Z,98183.15
2018-01-31T02:10:54.782Z,98184.85
2018-01-31T02:11:26.405Z,98191.69
2018-01-31T02:11:58.030Z,98180.59
2018-01-31T02:12:29.653Z,98176.38
2018-01-31T02:13:01.277Z,98178.47
2018-01-31T02:13:32.953Z,98181.91
2018-01-31T02:14:04.577Z,98173.83
2018-01-31T02:14:36.238Z,98166.17
2018-01-31T02:15:07.865Z,98171.70
2018-01-31T02:15:39.493Z,98170.42
2018-01-31T02:16:11.122Z,98167.02
2018-01-31T02:16:42.750Z,98163.56
2018-01-31T02:17:14.377Z,98159.77
2018-01-31T02:17:46.006Z,98160.59
2018-01-31T02:18:17.629Z,98161.45
2018-01-31T02:18:49.298Z,98159.33
2018-01-31T02:19:20.961Z,98154.22
2018-01-31T02:19:52.581Z,98159.28
2018-01-31T02:20:24.202Z,98149.07
2018-01-31T02:20:55.866Z,98152.94
2018-01-31T02:21:27.489Z,98148.64
2018-01-31T02:21:59.109Z,98145.67
2018-01-31T02:22:30.729Z,98146.55
2018-01-31T02:23:02.358Z,98144.83
2018-01-31T02:23:33.982Z,98143.58
2018-01-31T02:24:05.604Z,98139.30
2018-01-31T02:24:37.273Z,98140.61
2018-01-31T02:25:08.977Z,98138.49
2018-01-31T02:25:40.607Z,98139.34
2018-01-31T02:26:12.229Z,98140.64
2018-01-31T02:26:43.853Z,98134.29
2018-01-31T02:27:15.473Z,98131.30
2018-01-31T02:27:47.161Z,98140.20
2018-01-31T02:28:18.813Z,98145.31
2018-01-31T02:28:50.442Z,98134.25
2018-01-31T02:29:22.071Z,98131.73
2018-01-31T02:29:53.694Z,98135.99
2018-01-31T02:30:25.314Z,98126.16
2018-01-31T02:30:56.942Z,98135.09
2018-01-31T02:31:28.570Z,98128.27
2018-01-31T02:32:00.198Z,98129.11
2018-01-31T02:32:31.830Z,98128.27
2018-01-31T02:33:03.498Z,98127.00
2018-01-31T02:33:35.125Z,98122.75
2018-01-31T02:34:06.753Z,98128.70
2018-01-31T02:34:38.386Z,98123.17
2018-01-31T02:35:10.010Z,98118.91
2018-01-31T02:35:41.642Z,98120.19
2018-01-31T02:36:13.270Z,98125.72
2018-01-31T02:36:44.893Z,98121.89
2018-01-31T02:37:16.518Z,98118.50
2018-01-31T02:37:48.182Z,98119.81
2018-01-31T02:38:19.849Z,98115.56
2018-01-31T02:38:51.474Z,98118.55
2018-01-31T02:39:23.097Z,98113.44
2018-01-31T02:39:54.725Z,98112.58
2018-01-31T02:40:26.345Z,98113.87
2018-01-31T02:40:57.965Z,98119.82
2018-01-31T02:41:29.598Z,98115.98
2018-01-31T02:42:01.271Z,98115.56
2018-01-31T02:42:32.891Z,98113.00
2018-01-31T02:43:04.558Z,98115.52
2018-01-31T02:43:36.185Z,98111.26
2018-01-31T02:44:07.846Z,98113.38
2018-01-31T02:44:39.473Z,98116.78
2018-01-31T02:45:11.094Z,98117.21
2018-01-31T02:45:42.722Z,98113.38
2018-01-31T02:46:14.345Z,98118.07
2018-01-31T02:46:45.974Z,98112.17
2018-01-31T02:47:17.602Z,98113.88
2018-01-31T02:47:49.230Z,98105.78
2018-01-31T02:48:20.861Z,98111.74
2018-01-31T02:48:52.490Z,98106.69
2018-01-31T02:49:24.202Z,98109.18
2018-01-31T02:49:55.821Z,98109.18
2018-01-31T02:50:27.446Z,98104.92
2018-01-31T02:50:59.069Z,98102.80
2018-01-31T02:51:30.694Z,98106.15
2018-01-31T02:52:02.313Z,98100.16
2018-01-31T02:52:33.933Z,98109.11
2018-01-31T02:53:05.563Z,98095.06
2018-01-31T02:53:37.185Z,98100.98
2018-01-31T02:54:08.815Z,98097.63
2018-01-31T02:54:40.478Z,98100.19
2018-01-31T02:55:12.101Z,98097.22
2018-01-31T02:55:43.766Z,98099.81
2018-01-31T02:56:15.393Z,98095.14
2018-01-31T02:56:47.017Z,98098.53
2018-01-31T02:57:18.646Z,98087.00
2018-01-31T02:57:50.278Z,98097.63
2018-01-31T02:58:21.910Z,98093.86
2018-01-31T02:58:53.847Z,98089.17
2018-01-31T02:59:25.469Z,98089.66
2018-01-31T02:59:57.090Z,98095.66
2018-01-31T03:00:28.718Z,98097.73
2018-01-31T03:01:00.394Z,98093.86
2018-01-31T03:01:32.017Z,98089.55
2018-01-31T03:02:03.645Z,98086.61
2018-01-31T03:02:35.274Z,98087.84
2018-01-31T03:03:06.901Z,98081.88
2018-01-31T03:03:53.410Z,98087.34
2018-01-31T03:04:25.036Z,98078.45
2018-01-31T03:04:56.660Z,98075.92
2018-01-31T03:05:28.282Z,98080.17
2018-01-31T03:05:59.941Z,98063.27
2018-01-31T03:06:31.566Z,98074.20
2018-01-31T03:07:03.190Z,98070.39
2018-01-31T03:07:34.817Z,98078.95
2018-01-31T03:08:06.437Z,98075.13
2018-01-31T03:08:38.058Z,98073.84
2018-01-31T03:09:09.685Z,98078.95
2018-01-31T03:09:41.378Z,98076.41
2018-01-31T03:10:13.010Z,98074.70
2018-01-31T03:10:44.637Z,98073.42
2018-01-31T03:11:16.261Z,98072.95
2018-01-31T03:11:47.889Z,98078.05
2018-01-31T03:12:19.515Z,98078.05
2018-01-31T03:12:51.142Z,98073.42
2018-01-31T03:13:22.768Z,98077.25
2018-01-31T03:13:54.394Z,98074.70
2018-01-31T03:14:26.018Z,98073.48
2018-01-31T03:14:57.725Z,98073.05
2018-01-31T03:15:29.345Z,98069.23
2018-01-31T03:16:00.970Z,98070.55
2018-01-31T03:16:32.589Z,98073.49
2018-01-31T03:17:04.210Z,98072.63
2018-01-31T03:17:35.838Z,98072.63
2018-01-31T03:18:07.467Z,98067.10
2018-01-31T03:18:39.089Z,98066.73
2018-01-31T03:19:10.718Z,98062.91
2018-01-31T03:19:42.341Z,98070.56
2018-01-31T03:20:14.006Z,98062.91
2018-01-31T03:20:45.633Z,98062.95
2018-01-31T03:21:17.261Z,98057.01
2018-01-31T03:21:48.881Z,98063.44
2018-01-31T03:22:20.502Z,98058.81
2018-01-31T03:22:52.136Z,98054.52
2018-01-31T03:23:23.766Z,98062.17
2018-01-31T03:23:55.389Z,98060.88
2018-01-31T03:24:27.014Z,98054.12
2018-01-31T03:24:58.682Z,98055.83
2018-01-31T03:25:30.305Z,98060.09
2018-01-31T03:26:01.934Z,98064.36
2018-01-31T03:26:33.563Z,98065.63
2018-01-31T03:27:05.233Z,98057.17
2018-01-31T03:27:36.906Z,98063.13
2018-01-31T03:28:08.535Z,98061.00
2018-01-31T03:28:40.162Z,98060.20
2018-01-31T03:29:11.785Z,98061.48
2018-01-31T03:29:43.409Z,98061.44
2018-01-31T03:30:15.035Z,98054.20
2018-01-31T03:30:46.662Z,98052.13
2018-01-31T03:31:18.325Z,98048.72
2018-01-31T03:31:49.950Z,98047.82
2018-01-31T03:32:21.570Z,98041.86
2018-01-31T03:32:53.189Z,98042.27
2018-01-31T03:33:24.809Z,98040.58
2018-01-31T03:33:56.429Z,98038.88
2018-01-31T03:34:28.090Z,98039.30
2018-01-31T03:34:59.717Z,98033.34
2018-01-31T03:35:31.346Z,98034.63
2018-01-31T03:36:02.970Z,98034.67
2018-01-31T03:36:34.598Z,98026.59
2018-01-31T03:37:06.227Z,98023.67
2018-01-31T03:37:37.845Z,98028.34
2018-01-31T03:38:09.472Z,98028.30
2018-01-31T03:38:41.096Z,98023.62
2018-01-31T03:39:12.762Z,98022.33
2018-01-31T03:39:44.397Z,98015.10
2018-01-31T03:40:16.021Z,98016.33
2018-01-31T03:40:47.654Z,98017.48
2018-01-31T03:41:19.287Z,98020.69
2018-01-31T03:41:50.910Z,98020.16
2018-01-31T03:42:22.585Z,98013.39
2018-01-31T03:42:54.210Z,98018.14
2018-01-31T03:43:25.837Z,98020.75
2018-01-31T03:43:57.460Z,98020.81
2018-01-31T03:44:29.085Z,98022.58
2018-01-31T03:45:00.710Z,98025.61
2018-01-31T03:45:32.337Z,98024.78
2018-01-31T03:46:03.961Z,98024.40
2018-01-31T03:46:35.590Z,98017.18
2018-01-31T03:47:07.221Z,98022.70
2018-01-31T03:47:38.885Z,98018.93
2018-01-31T03:48:10.562Z,98015.52
2018-01-31T03:48:42.181Z,98013.83
2018-01-31T03:49:13.805Z,98019.36
2018-01-31T03:49:45.428Z,98018.09
2018-01-31T03:50:17.049Z,98017.53
2018-01-31T03:50:48.674Z,98016.50
2018-01-31T03:51:20.302Z,98015.11
2018-01-31T03:51:51.930Z,98013.69
2018-01-31T03:52:23.557Z,98016.97
2018-01-31T03:52:55.181Z,98012.63
2018-01-31T03:53:26.810Z,98016.36
2018-01-31T03:53:58.517Z,98011.59
2018-01-31T03:54:30.142Z,98013.17
2018-01-31T03:55:01.765Z,98013.11
2018-01-31T03:55:33.394Z,98013.11
2018-01-31T03:56:05.021Z,98015.12
2018-01-31T03:56:36.654Z,98014.13
2018-01-31T03:57:08.286Z,98011.58
2018-01-31T03:57:39.905Z,98007.02
2018-01-31T03:58:11.541Z,98008.87
2018-01-31T03:58:43.165Z,98003.09
2018-01-31T03:59:14.835Z,98001.52
2018-01-31T03:59:46.462Z,97986.59
2018-01-31T04:00:18.126Z,98005.46
2018-01-31T04:00:49.754Z,98000.01
2018-01-31T04:01:21.442Z,98006.06
2018-01-31T04:01:53.072Z,98000.14
2018-01-31T04:02:24.697Z,98004.45
2018-01-31T04:02:56.326Z,98002.35
2018-01-31T04:03:27.953Z,98003.25
2018-01-31T04:03:59.578Z,98005.87
2018-01-31T04:04:31.202Z,98008.86
2018-01-31T04:05:02.833Z,98008.48
2018-01-31T04:05:34.461Z,98005.97
2018-01-31T04:06:06.190Z,98003.87
2018-01-31T04:06:37.925Z,98009.39
2018-01-31T04:07:09.545Z,98007.27
2018-01-31T04:07:41.169Z,98009.82
2018-01-31T04:08:12.794Z,98008.54
2018-01-31T04:08:44.465Z,98005.56
2018-01-31T04:09:16.094Z,98007.28
2018-01-31T04:09:47.717Z,98000.47
2018-01-31T04:10:19.350Z,97997.52
2018-01-31T04:10:50.978Z,97993.70
2018-01-31T04:11:22.601Z,97997.54
2018-01-31T04:11:54.225Z,97994.14
2018-01-31T04:12:25.851Z,97992.06
2018-01-31T04:12:57.473Z,97984.78
2018-01-31T04:13:29.098Z,97985.69
2018-01-31T04:14:00.765Z,97982.27
2018-01-31T04:14:32.439Z,97982.69
2018-01-31T04:15:04.061Z,97988.61
2018-01-31T04:15:35.685Z,97981.37
2018-01-31T04:16:07.306Z,97978.82
2018-01-31T04:16:38.930Z,97977.16
2018-01-31T04:17:10.557Z,97977.16
2018-01-31T04:17:42.178Z,97975.03
2018-01-31T04:18:13.806Z,97974.19
2018-01-31T04:18:45.446Z,97968.72
2018-01-31T04:19:17.073Z,97972.50
2018-01-31T04:19:48.897Z,97974.20
2018-01-31T04:20:20.525Z,97970.36
2018-01-31T04:20:52.150Z,97972.92
2018-01-31T04:21:23.774Z,97964.45
2018-01-31T04:21:55.406Z,97967.82
2018-01-31T04:22:27.030Z,97962.75
2018-01-31T04:22:58.649Z,97968.72
2018-01-31T04:23:30.273Z,97964.04
2018-01-31T04:24:01.902Z,97965.36
2018-01-31T04:24:33.527Z,97963.61
2018-01-31T04:25:05.198Z,97958.98
2018-01-31T04:25:36.830Z,97958.14
2018-01-31T04:26:08.457Z,97958.55
2018-01-31T04:26:40.082Z,97953.03
2018-01-31T04:27:11.714Z,97955.59
2018-01-31T04:27:43.342Z,97964.09
2018-01-31T04:28:14.967Z,97954.73
2018-01-31T04:28:46.598Z,97956.02
2018-01-31T04:29:18.230Z,97959.42
2018-01-31T04:29:49.858Z,97955.59
2018-01-31T04:30:21.486Z,97955.59
2018-01-31T04:30:53.114Z,97955.64
2018-01-31T04:31:24.733Z,97959.86
2018-01-31T04:31:56.353Z,97957.30
2018-01-31T04:32:27.973Z,97954.75
2018-01-31T04:32:59.593Z,97959.86
2018-01-31T04:33:31.253Z,97957.34
2018-01-31T04:34:02.878Z,97948.83
2018-01-31T04:34:34.501Z,97955.17
2018-01-31T04:35:06.128Z,97952.20
2018-01-31T04:35:37.758Z,97952.23
2018-01-31T04:36:09.382Z,97959.48
2018-01-31T04:36:41.005Z,97954.38
2018-01-31T04:37:12.669Z,97947.56
2018-01-31T04:37:44.321Z,97950.97
2018-01-31T04:38:15.954Z,97950.11
2018-01-31T04:38:47.578Z,97952.63
2018-01-31T04:39:19.201Z,97950.97
2018-01-31T04:39:50.830Z,97945.44
2018-01-31T04:40:22.457Z,97950.98
2018-01-31T04:40:54.121Z,97947.62
2018-01-31T04:41:25.741Z,97950.56
2018-01-31T04:41:57.370Z,97943.74
2018-01-31T04:42:29.035Z,97947.58
2018-01-31T04:43:00.662Z,97945.44
2018-01-31T04:43:32.290Z,97942.47
2018-01-31T04:44:03.918Z,97945.86
2018-01-31T04:44:35.541Z,97944.58
2018-01-31T04:45:07.170Z,97940.77
2018-01-31T04:45:38.818Z,97938.64
2018-01-31T04:46:10.494Z,97942.08
2018-01-31T04:46:42.121Z,97937.83
2018-01-31T04:47:13.753Z,97934.81
2018-01-31T04:47:45.382Z,97926.78
2018-01-31T04:48:17.010Z,97926.78
2018-01-31T04:48:48.633Z,97934.44
2018-01-31T04:49:20.252Z,97932.73
2018-01-31T04:49:51.878Z,97929.76
2018-01-31T04:50:23.498Z,97924.23
2018-01-31T04:50:55.125Z,97928.07
2018-01-31T04:51:26.798Z,97928.07
2018-01-31T04:51:58.485Z,97929.38
2018-01-31T04:52:30.082Z,97925.98
2018-01-31T04:53:01.701Z,97924.29
2018-01-31T04:53:33.321Z,97925.98
2018-01-31T04:54:04.941Z,97922.16
2018-01-31T04:54:36.565Z,97929.34
2018-01-31T04:55:08.272Z,97922.96
2018-01-31T04:55:39.941Z,97927.20
2018-01-31T04:56:11.562Z,97918.70
2018-01-31T04:56:43.185Z,97925.51
2018-01-31T04:57:14.814Z,97919.13
2018-01-31T04:57:46.462Z,97922.96
2018-01-31T04:58:18.090Z,97928.06
2018-01-31T04:58:49.713Z,97923.38
2018-01-31T04:59:21.382Z,97921.68
2018-01-31T04:59:53.006Z,97927.64
2018-01-31T05:00:24.634Z,97925.13
2018-01-31T05:00:56.261Z,97928.16
2018-01-31T05:01:27.885Z,97925.98
2018-01-31T05:01:59.510Z,97926.36
2018-01-31T05:02:31.135Z,97931.46
2018-01-31T05:03:02.766Z,97925.51
2018-01-31T05:03:34.393Z,97930.63
2018-01-31T05:04:06.070Z,97936.19
2018-01-31T05:04:37.693Z,97926.84
2018-01-31T05:05:09.326Z,97928.54
2018-01-31T05:05:40.953Z,97928.98
2018-01-31T05:06:12.593Z,97924.72
2018-01-31T05:06:44.213Z,97924.34
2018-01-31T05:07:15.837Z,97922.59
2018-01-31T05:07:47.457Z,97922.58
2018-01-31T05:08:19.086Z,97920.45
2018-01-31T05:08:50.709Z,97923.02
2018-01-31T05:09:22.377Z,97921.31
2018-01-31T05:09:54.002Z,97914.52
2018-01-31T05:10:25.633Z,97915.36
2018-01-31T05:10:57.298Z,97910.69
2018-01-31T05:11:28.927Z,97914.08
2018-01-31T05:12:00.647Z,97915.36
2018-01-31T05:12:32.277Z,97914.98
2018-01-31T05:13:03.897Z,97913.70
2018-01-31T05:13:35.522Z,97902.22
2018-01-31T05:14:07.153Z,97912.02
2018-01-31T05:14:38.782Z,97911.58
2018-01-31T05:15:10.409Z,97909.05
2018-01-31T05:15:42.038Z,97908.23
2018-01-31T05:16:13.713Z,97906.49
2018-01-31T05:16:45.358Z,97902.23
2018-01-31T05:17:16.985Z,97901.38
2018-01-31T05:17:48.610Z,97894.58
2018-01-31T05:18:20.235Z,97898.84
2018-01-31T05:18:51.857Z,97894.56
2018-01-31T05:19:23.477Z,97902.24
2018-01-31T05:19:55.097Z,97895.47
2018-01-31T05:20:26.722Z,97899.73
2018-01-31T05:20:58.341Z,97905.26
2018-01-31T05:21:30.182Z,97897.18
2018-01-31T05:22:01.808Z,97898.41
2018-01-31T05:22:33.433Z,97902.70
2018-01-31T05:23:05.070Z,97895.91
2018-01-31T05:23:36.698Z,97891.22
2018-01-31T05:24:08.326Z,97892.03
2018-01-31T05:24:39.950Z,97889.52
2018-01-31T05:25:11.573Z,97889.95
2018-01-31T05:25:43.193Z,97897.19
2018-01-31T05:26:14.818Z,97886.12
2018-01-31T05:26:46.506Z,97886.97
2018-01-31T05:27:18.134Z,97890.37
2018-01-31T05:27:49.757Z,97893.78
2018-01-31T05:28:21.388Z,97892.07
2018-01-31T05:28:53.009Z,97893.34
2018-01-31T05:29:24.633Z,97891.23
2018-01-31T05:29:56.261Z,97886.17
2018-01-31T05:30:27.890Z,97887.83
2018-01-31T05:30:59.525Z,97890.38
2018-01-31T05:31:31.145Z,97887.02
2018-01-31T05:32:02.809Z,97893.78
2018-01-31T05:32:34.438Z,97892.07
2018-01-31T05:33:06.070Z,97885.69
2018-01-31T05:33:37.700Z,97884.84
2018-01-31T05:34:09.366Z,97882.72
2018-01-31T05:34:40.989Z,97884.84
2018-01-31T05:35:12.613Z,97886.08
2018-01-31T05:35:44.273Z,97878.45
2018-01-31T05:36:15.942Z,97880.59
2018-01-31T05:36:47.561Z,97875.86
2018-01-31T05:37:19.261Z,97871.61
2018-01-31T05:37:50.890Z,97862.28
2018-01-31T05:38:22.518Z,97866.12
2018-01-31T05:38:54.151Z,97860.59
2018-01-31T05:39:25.773Z,97856.34
2018-01-31T05:39:57.401Z,97858.05
2018-01-31T05:40:29.073Z,97850.82
2018-01-31T05:41:00.710Z,97857.14
2018-01-31T05:41:32.338Z,97852.89
2018-01-31T05:42:03.966Z,97848.25
2018-01-31T05:42:35.590Z,97840.59
2018-01-31T05:43:07.218Z,97840.59
2018-01-31T05:43:38.841Z,97843.16
2018-01-31T05:44:10.473Z,97840.62
2018-01-31T05:44:42.094Z,97838.95
2018-01-31T05:45:13.722Z,97839.77
2018-01-31T05:45:45.349Z,97832.96
2018-01-31T05:46:16.978Z,97835.08
2018-01-31T05:46:48.601Z,97839.34
2018-01-31T05:47:20.286Z,97833.84
2018-01-31T05:47:51.905Z,97829.13
2018-01-31T05:48:23.534Z,97834.23
2018-01-31T05:48:55.162Z,97811.93
2018-01-31T05:49:26.789Z,97823.17
2018-01-31T05:49:58.423Z,97818.92
2018-01-31T05:50:30.052Z,97815.98
2018-01-31T05:51:01.673Z,97826.15
2018-01-31T05:51:33.302Z,97815.09
2018-01-31T05:52:04.925Z,97815.99
2018-01-31T05:52:36.594Z,97818.49
2018-01-31T05:53:08.217Z,97824.02
2018-01-31T05:53:39.837Z,97815.94
2018-01-31T05:54:11.458Z,97813.39
2018-01-31T05:54:43.079Z,97811.68
2018-01-31T05:55:14.701Z,97810.88
2018-01-31T05:55:46.321Z,97812.55
2018-01-31T05:56:17.942Z,97803.18
2018-01-31T05:56:49.561Z,97813.86
2018-01-31T05:57:21.229Z,97804.08
2018-01-31T05:57:52.922Z,97801.54
2018-01-31T05:58:24.545Z,97803.66
2018-01-31T05:58:56.170Z,97802.39
2018-01-31T05:59:27.800Z,97803.67
2018-01-31T05:59:59.431Z,97800.25
2018-01-31T06:00:31.058Z,97800.67
2018-01-31T06:01:02.703Z,97802.33
2018-01-31T06:01:34.330Z,97803.61
2018-01-31T06:02:05.957Z,97804.03
2018-01-31T06:02:37.577Z,97801.10
2018-01-31T06:03:09.254Z,97801.94
2018-01-31T06:03:40.881Z,97803.61
2018-01-31T06:04:12.505Z,97804.51
2018-01-31T06:04:44.128Z,97801.53
2018-01-31T06:05:15.753Z,97796.86
2018-01-31T06:05:47.381Z,97799.00
2018-01-31T06:06:19.010Z,97794.73
2018-01-31T06:06:50.638Z,97804.99
2018-01-31T06:07:22.261Z,97803.24
2018-01-31T06:07:53.882Z,97798.62
2018-01-31T06:08:25.591Z,97792.23
2018-01-31T06:08:57.201Z,97802.83
2018-01-31T06:09:28.829Z,97798.20
2018-01-31T06:10:00.458Z,97796.92
2018-01-31T06:10:32.086Z,97799.91
2018-01-31T06:11:03.713Z,97804.58
2018-01-31T06:11:35.342Z,97796.51
2018-01-31T06:12:07.009Z,97801.18
2018-01-31T06:12:38.638Z,97799.04
2018-01-31T06:13:10.262Z,97799.05
2018-01-31T06:13:41.930Z,97792.67
2018-01-31T06:14:13.598Z,97790.12
2018-01-31T06:14:45.218Z,97797.77
2018-01-31T06:15:16.841Z,97787.98
2018-01-31T06:15:48.468Z,97790.96
2018-01-31T06:16:20.094Z,97790.12
2018-01-31T06:16:51.721Z,97786.72
2018-01-31T06:17:23.346Z,97791.38
2018-01-31T06:17:54.970Z,97784.59
2018-01-31T06:18:26.593Z,97792.25
2018-01-31T06:18:58.258Z,97790.54
2018-01-31T06:19:29.877Z,97784.58
2018-01-31T06:20:01.542Z,97776.49
2018-01-31T06:20:33.170Z,97783.30
2018-01-31T06:21:04.798Z,97778.58
2018-01-31T06:21:36.425Z,97783.73
2018-01-31T06:22:08.046Z,97786.71
2018-01-31T06:22:39.675Z,97777.78
2018-01-31T06:23:11.306Z,97777.77
2018-01-31T06:23:42.935Z,97775.65
2018-01-31T06:24:14.557Z,97780.77
2018-01-31T06:24:46.226Z,97776.07
2018-01-31T06:25:17.854Z,97779.48
2018-01-31T06:25:49.477Z,97773.53
2018-01-31T06:26:21.140Z,97775.66
2018-01-31T06:26:52.770Z,97767.58
2018-01-31T06:27:24.393Z,97775.23
2018-01-31T06:27:56.022Z,97765.04
2018-01-31T06:28:27.649Z,97767.16
2018-01-31T06:28:59.277Z,97765.50
2018-01-31T06:29:30.902Z,97768.91
2018-01-31T06:30:02.566Z,97763.77
2018-01-31T06:30:34.189Z,97760.40
2018-01-31T06:31:05.809Z,97770.14
2018-01-31T06:31:37.438Z,97766.78
2018-01-31T06:32:09.107Z,97767.20
2018-01-31T06:32:40.733Z,97767.58
2018-01-31T06:33:12.373Z,97764.65
2018-01-31T06:33:43.998Z,97762.09
2018-01-31T06:34:15.621Z,97759.08
2018-01-31T06:34:47.246Z,97762.91
2018-01-31T06:35:18.873Z,97754.45
2018-01-31T06:35:50.497Z,97753.17
2018-01-31T06:36:22.126Z,97744.26
2018-01-31T06:36:53.797Z,97747.64
2018-01-31T06:37:25.426Z,97758.30
2018-01-31T06:37:57.054Z,97747.66
2018-01-31T06:38:28.681Z,97751.53
2018-01-31T06:39:00.311Z,97742.59
2018-01-31T06:39:31.937Z,97747.27
2018-01-31T06:40:03.561Z,97744.26
2018-01-31T06:40:35.186Z,97740.84
2018-01-31T06:41:06.816Z,97748.98
2018-01-31T06:41:38.441Z,97740.47
2018-01-31T06:42:10.117Z,97741.70
2018-01-31T06:42:41.746Z,97742.17
2018-01-31T06:43:13.369Z,97743.88
2018-01-31T06:43:45.004Z,97742.61
2018-01-31T06:44:16.634Z,97744.31
2018-01-31T06:44:48.261Z,97748.56
2018-01-31T06:45:19.881Z,97747.27
2018-01-31T06:45:51.505Z,97741.34
2018-01-31T06:46:23.126Z,97743.91
2018-01-31T06:46:54.745Z,97738.84
2018-01-31T06:47:26.422Z,97744.75
2018-01-31T06:47:58.049Z,97745.59
2018-01-31T06:48:29.673Z,97740.92
2018-01-31T06:49:01.301Z,97734.97
2018-01-31T06:49:32.922Z,97740.48
2018-01-31T06:50:04.546Z,97740.44
2018-01-31T06:50:36.178Z,97740.05
2018-01-31T06:51:07.801Z,97742.59
2018-01-31T06:51:39.435Z,97745.11
2018-01-31T06:52:11.066Z,97741.32
2018-01-31T06:52:42.734Z,97742.17
2018-01-31T06:53:14.398Z,97734.09
2018-01-31T06:53:46.027Z,97740.91
2018-01-31T06:54:17.649Z,97739.66
2018-01-31T06:54:49.277Z,97735.80
2018-01-31T06:55:20.897Z,97733.27
2018-01-31T06:55:52.518Z,97732.00
2018-01-31T06:56:24.148Z,97731.14
2018-01-31T06:56:55.773Z,97728.59
2018-01-31T06:57:27.633Z,97732.84
2018-01-31T06:57:59.262Z,97731.13
2018-01-31T06:58:30.889Z,97730.28
2018-01-31T06:59:02.518Z,97734.55
2018-01-31T06:59:34.141Z,97735.82
2018-01-31T07:00:05.768Z,97735.39
2018-01-31T07:00:37.427Z,97729.43
2018-01-31T07:01:09.049Z,97734.12
2018-01-31T07:01:40.674Z,97732.78
2018-01-31T07:02:12.298Z,97728.14
2018-01-31T07:02:43.966Z,97725.54
2018-01-31T07:03:15.590Z,97730.64
2018-01-31T07:03:47.222Z,97725.59
2018-01-31T07:04:18.850Z,97720.50
2018-01-31T07:04:50.474Z,97726.88
2018-01-31T07:05:22.102Z,97724.75
2018-01-31T07:05:53.730Z,97718.38
2018-01-31T07:06:25.353Z,97720.50
2018-01-31T07:06:56.974Z,97717.51
2018-01-31T07:07:28.602Z,97717.51
2018-01-31T07:08:00.230Z,97718.80
2018-01-31T07:08:31.850Z,97726.45
2018-01-31T07:09:03.510Z,97726.88
2018-01-31T07:09:35.134Z,97720.48
2018-01-31T07:10:06.757Z,97722.18
2018-01-31T07:10:38.413Z,97714.97
2018-01-31T07:11:10.033Z,97715.39
2018-01-31T07:11:41.653Z,97720.48
2018-01-31T07:12:13.282Z,97706.24
2018-01-31T07:12:44.910Z,97713.69
2018-01-31T07:13:16.538Z,97710.70
2018-01-31T07:13:48.165Z,97714.53
2018-01-31T07:14:19.790Z,97709.01
2018-01-31T07:14:51.419Z,97708.16
2018-01-31T07:15:23.086Z,97705.59
2018-01-31T07:15:54.714Z,97708.16
2018-01-31T07:16:26.338Z,97701.36
2018-01-31T07:16:57.961Z,97711.57
2018-01-31T07:17:29.700Z,97703.91
2018-01-31T07:18:01.325Z,97703.05
2018-01-31T07:18:32.949Z,97707.72
2018-01-31T07:19:04.582Z,97704.75
2018-01-31T07:19:36.210Z,97703.43
2018-01-31T07:20:07.840Z,97708.14
2018-01-31T07:20:39.469Z,97706.45
2018-01-31T07:21:11.098Z,97706.87
2018-01-31T07:21:42.722Z,97704.31
2018-01-31T07:22:14.391Z,97708.58
2018-01-31T07:22:46.017Z,97708.58
2018-01-31T07:23:17.637Z,97705.13
2018-01-31T07:23:49.261Z,97700.02
2018-01-31T07:24:20.934Z,97696.67
2018-01-31T07:24:52.557Z,97699.21
2018-01-31T07:25:24.189Z,97703.47
2018-01-31T07:25:55.813Z,97699.59
2018-01-31T07:26:27.442Z,97691.91
2018-01-31T07:26:59.065Z,97694.05
2018-01-31T07:27:30.716Z,97690.23
2018-01-31T07:28:02.346Z,97690.67
2018-01-31T07:28:33.965Z,97688.96
2018-01-31T07:29:05.594Z,97690.29
2018-01-31T07:29:37.217Z,97691.09
2018-01-31T07:30:08.877Z,97693.64
2018-01-31T07:30:40.501Z,97680.93
2018-01-31T07:31:12.129Z,97678.80
2018-01-31T07:31:43.783Z,97680.46
2018-01-31T07:32:15.406Z,97672.80
2018-01-31T07:32:47.029Z,97673.27
2018-01-31T07:33:18.649Z,97675.78
2018-01-31T07:33:50.271Z,97673.66
2018-01-31T07:34:21.933Z,97674.91
2018-01-31T07:34:53.559Z,97676.20
2018-01-31T07:35:25.185Z,97673.64
2018-01-31T07:35:56.811Z,97668.11
2018-01-31T07:36:28.433Z,97671.09
2018-01-31T07:37:00.058Z,97668.97
2018-01-31T07:37:31.681Z,97672.80
2018-01-31T07:38:03.309Z,97663.86
2018-01-31T07:38:34.943Z,97663.44
2018-01-31T07:39:06.566Z,97662.16
2018-01-31T07:39:38.242Z,97657.48
2018-01-31T07:40:09.866Z,97655.35
2018-01-31T07:40:41.497Z,97649.45
2018-01-31T07:41:13.121Z,97654.51
2018-01-31T07:41:44.748Z,97650.30
2018-01-31T07:42:16.378Z,97652.00
2018-01-31T07:42:48.007Z,97652.87
2018-01-31T07:43:19.633Z,97656.28
2018-01-31T07:43:51.261Z,97655.01
2018-01-31T07:44:22.894Z,97654.20
2018-01-31T07:44:54.562Z,97658.48
2018-01-31T07:45:26.229Z,97661.52
2018-01-31T07:45:57.854Z,97656.42
2018-01-31T07:46:29.505Z,97653.44
2018-01-31T07:47:01.129Z,97656.00
2018-01-31T07:47:32.786Z,97658.59
2018-01-31T07:48:04.413Z,97656.06
2018-01-31T07:48:36.040Z,97651.02
2018-01-31T07:49:07.670Z,97642.53
2018-01-31T07:49:39.298Z,97643.44
2018-01-31T07:50:10.957Z,97639.61
2018-01-31T07:50:42.585Z,97643.88
2018-01-31T07:51:14.218Z,97643.08
2018-01-31T07:51:45.854Z,97639.67
2018-01-31T07:52:17.473Z,97643.10
2018-01-31T07:52:49.098Z,97647.42
2018-01-31T07:53:20.718Z,97647.42
2018-01-31T07:53:52.345Z,97648.75
2018-01-31T07:54:23.965Z,97650.02
2018-01-31T07:54:55.633Z,97639.03
2018-01-31T07:55:27.257Z,97641.95
2018-01-31T07:55:58.882Z,97641.55
2018-01-31T07:56:30.534Z,97641.55
2018-01-31T07:57:02.202Z,97635.16
2018-01-31T07:57:33.829Z,97640.32
2018-01-31T07:58:05.453Z,97635.16
2018-01-31T07:58:37.077Z,97639.88
2018-01-31T07:59:08.709Z,97633.50
2018-01-31T07:59:40.330Z,97635.16
2018-01-31T08:00:11.953Z,97633.04
2018-01-31T08:00:43.581Z,97624.96
2018-01-31T08:01:15.246Z,97627.94
2018-01-31T08:01:46.935Z,97624.53
2018-01-31T08:02:18.589Z,97627.50
2018-01-31T08:02:50.213Z,97627.91